Portland Mills, Pennsylvania
Current Conditions -  °F | °C
As of 9:53 AM on Thursday 23 Oct 2014 (Local Time) from KDUJ Reporting Station
Overcast Overcast  
Wind Chill: 40°   Ceiling: 1200
Heat Index: 45°   Visibility: 10mi
Dew Point: 40°   Wind: 10mph
Humidity: 82%   Direction: 340°NNW
Pressure: 30.05"   Gusts: NA
Location:  41.4397°N, 78.7326°W
Report Text: KDUJ 231353Z AUTO 34009KT 10SM OVC012 07/04 A3005 RMK AO2 SLP185 T00720044
Loading
Personal Weather Stations






























Interactive Weather Map
Tropical Storm Tracking
New forecast layout! Learn more

10-Day Weather Forecast

Advertisements
Track Severe Weather on mobile